Terminal Aerodrome Forecast
Issued by NWS

Home | Current Version | Previous Version | Text Only | Print | Product List | Glossary On
Versions: 1 2 3 4 5 6 7 8 9 10 11 12 13
000
FTUS45 KPSR 312335
TAFIPL
TAF
KIPL 312335Z 0100/0124 26010KT P6SM FEW250
      TEMPO 0100/0103 26012G20KT
     FM011700 VRB03KT P6SM FEW250
      TEMPO 0120/0124 13005KT=

USA.gov is the U.S. government's official web portal to all federal, state and local government web resources and services.